Estación de Las Viñas

Ultimos registro cada 15 minutos 68
Estación Fecha / Hora Temperatura Humedad Lluvia Velocidad Dirección Radiación Presion
68 Las Viñas 09-05-2026 16:45 15,2 65 0 0 190 102 1021,1
67 Las Viñas 09-05-2026 16:30 15,5 65 0 0,9 256 104 1021
66 Las Viñas 09-05-2026 16:15 15,6 66 0 0 166 221 1021,2
65 Las Viñas 09-05-2026 16:00 15,6 64 0 0,9 158 264 1021,3
64 Las Viñas 09-05-2026 15:45 15,6 63 0 0,4 154 301 1021,4
63 Las Viñas 09-05-2026 15:30 15,8 63 0 0,9 208 211 1021,3
62 Las Viñas 09-05-2026 15:15 16,1 62 0 0,4 228 385 1021,4
61 Las Viñas 09-05-2026 15:00 16 63 0 0,4 239 253 1021,5
60 Las Viñas 09-05-2026 14:45 16,2 63 0 0,9 143 279 1021,6
59 Las Viñas 09-05-2026 14:30 16,1 63 0 0 205 316 1021,7
58 Las Viñas 09-05-2026 14:15 15,6 63 0 0 212 520 1021,9
57 Las Viñas 09-05-2026 14:00 15,3 60 0 0,4 234 548 1022
56 Las Viñas 09-05-2026 13:45 14,8 63 0 0 180 295 1022,1
55 Las Viñas 09-05-2026 13:30 14,4 67 0 0,4 135 469 1022,7
54 Las Viñas 09-05-2026 13:15 14,1 68 0 0 229 591 1022,8
53 Las Viñas 09-05-2026 13:00 13,7 68 0 0 170 598 1023,2
52 Las Viñas 09-05-2026 12:45 13,5 68 0 0,9 112 573 1023,3
51 Las Viñas 09-05-2026 12:30 13,1 68 0 1,8 157 596 1023,4
50 Las Viñas 09-05-2026 12:15 12,7 70 0 0,9 185 596 1023,6
49 Las Viñas 09-05-2026 12:00 12,1 70 0 1,3 144 589 1024
48 Las Viñas 09-05-2026 11:45 11,7 75 0 0,4 168 281 1024,1
47 Las Viñas 09-05-2026 11:30 11 77 0 0,4 185 561 1024
46 Las Viñas 09-05-2026 11:15 10,3 76 0 0 158 540 1024,2
45 Las Viñas 09-05-2026 11:00 9,8 78 0 0 206 519 1024,2
44 Las Viñas 09-05-2026 10:45 9,3 80 0 0 157 497 1024,3
43 Las Viñas 09-05-2026 10:30 8,7 83 0 0,4 153 251 1024,1
42 Las Viñas 09-05-2026 10:15 8,2 82 0 0 175 396 1024,7
41 Las Viñas 09-05-2026 10:00 7,7 83 0 0,4 136 230 1024,9
40 Las Viñas 09-05-2026 09:45 7,1 85 0 0,4 193 241 1025,1
39 Las Viñas 09-05-2026 09:30 6,4 85 0 0,4 170 320 1025,2
38 Las Viñas 09-05-2026 09:15 5,7 86 0 0 214 97 1025,3
37 Las Viñas 09-05-2026 09:00 5,2 88 0 0 180 169 1025,1
36 Las Viñas 09-05-2026 08:45 4,4 89 0 0 165 169 1025,2
35 Las Viñas 09-05-2026 08:30 3,9 89 0 0 195 26 1025,1
34 Las Viñas 09-05-2026 08:15 3,4 88 0 0 192 30 1024,7
33 Las Viñas 09-05-2026 08:00 2,9 89 0 0 175 14 1024,6
32 Las Viñas 09-05-2026 07:45 2,9 89 0 0 207 9 1024,8
31 Las Viñas 09-05-2026 07:30 3 89 0 0 189 0 1024,7
30 Las Viñas 09-05-2026 07:15 3,2 89 0 0 180 0 1024,7
29 Las Viñas 09-05-2026 07:00 3,3 89 0 0,4 185 0 1024,8
28 Las Viñas 09-05-2026 06:45 3,4 88 0 0 155 0 1024,7
27 Las Viñas 09-05-2026 06:30 3,4 88 0 0,4 306 0 1024,7
26 Las Viñas 09-05-2026 06:15 3,3 88 0 0 191 0 1024,8
25 Las Viñas 09-05-2026 06:00 3,4 87 0 0 209 0 1024,8
24 Las Viñas 09-05-2026 05:45 3,4 87 0 0 160 0 1024,8
23 Las Viñas 09-05-2026 05:30 3,4 87 0 0 160 0 1024,9
22 Las Viñas 09-05-2026 05:15 3,6 86 0 0 153 0 1025
21 Las Viñas 09-05-2026 05:00 3,8 86 0 0 180 0 1025
20 Las Viñas 09-05-2026 04:45 3,8 85 0 0 165 0 1025,1
19 Las Viñas 09-05-2026 04:30 3,8 84 0 0 185 0 1024,9
18 Las Viñas 09-05-2026 04:15 3,6 84 0 0 180 0 1024,9
17 Las Viñas 09-05-2026 04:00 3,6 84 0 0 180 0 1024,9
16 Las Viñas 09-05-2026 03:45 3,7 85 0 0 191 0 1025
15 Las Viñas 09-05-2026 03:30 3,8 85 0 0 191 0 1025,1
14 Las Viñas 09-05-2026 03:15 3,7 86 0 0 185 0 1025,3
13 Las Viñas 09-05-2026 03:00 3,9 86 0 0 194 0 1025,4
12 Las Viñas 09-05-2026 02:45 4,2 86 0 0 214 0 1025,4
11 Las Viñas 09-05-2026 02:30 4,5 87 0 0 180 0 1025,3
10 Las Viñas 09-05-2026 02:15 4,8 86 0 0 185 0 1025,5
9 Las Viñas 09-05-2026 02:00 5,4 85 0 0 153 0 1025,6
8 Las Viñas 09-05-2026 01:45 5,4 85 0 0 153 0 1025,6
7 Las Viñas 09-05-2026 01:30 5,6 85 0 0,4 175 0 1025,7
6 Las Viñas 09-05-2026 01:15 5,7 85 0 0 167 0 1025,8
5 Las Viñas 09-05-2026 01:00 6 83 0 0,4 166 0 1025,6
4 Las Viñas 09-05-2026 00:45 6 83 0 0,4 166 0 1025,6
3 Las Viñas 09-05-2026 00:30 6,1 83 0 0,4 175 0 1025,5
2 Las Viñas 09-05-2026 00:15 6,2 82 0 0,4 166 0 1025,3
1 Las Viñas 09-05-2026 00:00 6,3 82 0 0 180 0 1025,2